sensor_id;sensor_type;location;lat;lon;timestamp;P1;durP1;ratioP1;P2;durP2;ratioP2
1775;SDS011;885;42.626;23.200;2022-10-30T00:01:39;1.60;;;1.50;;
1775;SDS011;885;42.626;23.200;2022-10-30T00:04:09;1.63;;;1.40;;
1775;SDS011;885;42.626;23.200;2022-10-30T00:06:35;3.90;;;1.53;;
1775;SDS011;885;42.626;23.200;2022-10-30T00:09:02;1.90;;;1.70;;
1775;SDS011;885;42.626;23.200;2022-10-30T00:11:29;3.00;;;1.53;;
1775;SDS011;885;42.626;23.200;2022-10-30T00:13:56;2.07;;;1.40;;
1775;SDS011;885;42.626;23.200;2022-10-30T00:16:23;1.53;;;1.23;;
1775;SDS011;885;42.626;23.200;2022-10-30T00:18:50;2.63;;;1.60;;
1775;SDS011;885;42.626;23.200;2022-10-30T00:21:19;1.50;;;1.40;;
1775;SDS011;885;42.626;23.200;2022-10-30T00:23:46;1.43;;;1.33;;
1775;SDS011;885;42.626;23.200;2022-10-30T00:26:14;1.73;;;1.27;;
1775;SDS011;885;42.626;23.200;2022-10-30T00:28:41;1.30;;;1.20;;
1775;SDS011;885;42.626;23.200;2022-10-30T00:31:09;1.30;;;1.20;;
1775;SDS011;885;42.626;23.200;2022-10-30T00:33:36;4.07;;;1.30;;
1775;SDS011;885;42.626;23.200;2022-10-30T00:36:03;1.83;;;1.30;;
1775;SDS011;885;42.626;23.200;2022-10-30T00:38:31;1.67;;;1.57;;
1775;SDS011;885;42.626;23.200;2022-10-30T00:40:58;1.93;;;1.30;;
1775;SDS011;885;42.626;23.200;2022-10-30T00:43:26;1.20;;;1.10;;
1775;SDS011;885;42.626;23.200;2022-10-30T00:45:54;1.73;;;1.20;;
1775;SDS011;885;42.626;23.200;2022-10-30T00:48:24;1.10;;;1.00;;
1775;SDS011;885;42.626;23.200;2022-10-30T00:50:52;1.77;;;1.30;;
1775;SDS011;885;42.626;23.200;2022-10-30T00:53:19;1.47;;;1.33;;
1775;SDS011;885;42.626;23.200;2022-10-30T00:55:50;2.80;;;1.37;;
1775;SDS011;885;42.626;23.200;2022-10-30T00:58:20;1.93;;;1.40;;
1775;SDS011;885;42.626;23.200;2022-10-30T01:00:51;2.23;;;1.30;;
1775;SDS011;885;42.626;23.200;2022-10-30T01:03:20;1.83;;;1.27;;
1775;SDS011;885;42.626;23.200;2022-10-30T01:05:50;1.60;;;1.30;;
1775;SDS011;885;42.626;23.200;2022-10-30T01:08:21;2.40;;;2.10;;
1775;SDS011;885;42.626;23.200;2022-10-30T01:10:47;2.17;;;1.93;;
1775;SDS011;885;42.626;23.200;2022-10-30T01:13:16;1.97;;;1.40;;
1775;SDS011;885;42.626;23.200;2022-10-30T01:15:47;1.90;;;1.60;;
1775;SDS011;885;42.626;23.200;2022-10-30T01:18:26;1.70;;;1.60;;
1775;SDS011;885;42.626;23.200;2022-10-30T01:21:06;2.07;;;1.83;;
1775;SDS011;885;42.626;23.200;2022-10-30T01:23:44;2.43;;;1.50;;
1775;SDS011;885;42.626;23.200;2022-10-30T01:26:22;2.27;;;1.60;;
1775;SDS011;885;42.626;23.200;2022-10-30T01:29:12;2.23;;;1.40;;
1775;SDS011;885;42.626;23.200;2022-10-30T01:31:56;2.73;;;1.77;;
1775;SDS011;885;42.626;23.200;2022-10-30T01:34:36;4.67;;;2.00;;
1775;SDS011;885;42.626;23.200;2022-10-30T01:37:12;2.23;;;1.90;;
1775;SDS011;885;42.626;23.200;2022-10-30T01:39:41;1.93;;;1.67;;
1775;SDS011;885;42.626;23.200;2022-10-30T01:42:37;2.33;;;2.13;;
1775;SDS011;885;42.626;23.200;2022-10-30T01:45:09;3.00;;;1.87;;
1775;SDS011;885;42.626;23.200;2022-10-30T01:47:42;2.00;;;1.80;;
1775;SDS011;885;42.626;23.200;2022-10-30T01:50:22;2.67;;;2.40;;
1775;SDS011;885;42.626;23.200;2022-10-30T01:52:54;6.50;;;3.20;;
1775;SDS011;885;42.626;23.200;2022-10-30T01:55:29;6.87;;;3.77;;
1775;SDS011;885;42.626;23.200;2022-10-30T01:58:05;2.60;;;2.40;;
1775;SDS011;885;42.626;23.200;2022-10-30T02:00:37;2.33;;;2.13;;
1775;SDS011;885;42.626;23.200;2022-10-30T02:03:07;3.17;;;2.60;;
1775;SDS011;885;42.626;23.200;2022-10-30T02:05:36;3.30;;;2.73;;
1775;SDS011;885;42.626;23.200;2022-10-30T02:08:06;2.43;;;2.10;;
1775;SDS011;885;42.626;23.200;2022-10-30T02:10:33;2.27;;;2.03;;
1775;SDS011;885;42.626;23.200;2022-10-30T02:13:03;5.63;;;4.57;;
1775;SDS011;885;42.626;23.200;2022-10-30T02:15:30;2.03;;;1.93;;
1775;SDS011;885;42.626;23.200;2022-10-30T02:17:58;4.40;;;4.00;;
1775;SDS011;885;42.626;23.200;2022-10-30T02:20:26;9.73;;;5.97;;
1775;SDS011;885;42.626;23.200;2022-10-30T02:22:53;5.20;;;4.60;;
1775;SDS011;885;42.626;23.200;2022-10-30T02:25:20;6.70;;;6.20;;
1775;SDS011;885;42.626;23.200;2022-10-30T02:27:47;4.63;;;3.57;;
1775;SDS011;885;42.626;23.200;2022-10-30T02:30:14;4.27;;;3.70;;
1775;SDS011;885;42.626;23.200;2022-10-30T02:32:41;5.70;;;3.87;;
1775;SDS011;885;42.626;23.200;2022-10-30T02:35:08;4.30;;;3.90;;
1775;SDS011;885;42.626;23.200;2022-10-30T02:37:36;4.60;;;4.17;;
1775;SDS011;885;42.626;23.200;2022-10-30T02:40:04;5.83;;;5.27;;
1775;SDS011;885;42.626;23.200;2022-10-30T02:42:32;3.77;;;3.47;;
1775;SDS011;885;42.626;23.200;2022-10-30T02:44:59;3.20;;;2.80;;
1775;SDS011;885;42.626;23.200;2022-10-30T02:47:27;3.77;;;3.47;;
1775;SDS011;885;42.626;23.200;2022-10-30T02:49:54;6.53;;;5.90;;
1775;SDS011;885;42.626;23.200;2022-10-30T02:52:20;4.17;;;3.23;;
1775;SDS011;885;42.626;23.200;2022-10-30T02:54:49;2.83;;;2.63;;
1775;SDS011;885;42.626;23.200;2022-10-30T02:57:15;2.30;;;2.10;;
1775;SDS011;885;42.626;23.200;2022-10-30T02:59:42;3.53;;;1.80;;
1775;SDS011;885;42.626;23.200;2022-10-30T03:02:09;2.07;;;1.93;;
1775;SDS011;885;42.626;23.200;2022-10-30T03:04:36;2.33;;;2.13;;
1775;SDS011;885;42.626;23.200;2022-10-30T03:07:02;2.60;;;2.40;;
1775;SDS011;885;42.626;23.200;2022-10-30T03:09:29;4.10;;;2.90;;
1775;SDS011;885;42.626;23.200;2022-10-30T03:11:57;8.23;;;7.10;;
1775;SDS011;885;42.626;23.200;2022-10-30T03:14:24;5.13;;;4.63;;
1775;SDS011;885;42.626;23.200;2022-10-30T03:16:51;4.77;;;4.37;;
1775;SDS011;885;42.626;23.200;2022-10-30T03:19:18;7.40;;;6.70;;
1775;SDS011;885;42.626;23.200;2022-10-30T03:21:45;5.20;;;4.73;;
1775;SDS011;885;42.626;23.200;2022-10-30T03:24:12;6.87;;;4.73;;
1775;SDS011;885;42.626;23.200;2022-10-30T03:26:39;8.37;;;7.37;;
1775;SDS011;885;42.626;23.200;2022-10-30T03:29:07;5.50;;;5.03;;
1775;SDS011;885;42.626;23.200;2022-10-30T03:31:34;8.57;;;7.53;;
1775;SDS011;885;42.626;23.200;2022-10-30T03:34:01;5.60;;;5.10;;
1775;SDS011;885;42.626;23.200;2022-10-30T03:36:27;5.80;;;4.27;;
1775;SDS011;885;42.626;23.200;2022-10-30T03:38:54;3.97;;;3.57;;
1775;SDS011;885;42.626;23.200;2022-10-30T03:41:21;6.23;;;5.03;;
1775;SDS011;885;42.626;23.200;2022-10-30T03:43:48;5.87;;;4.00;;
1775;SDS011;885;42.626;23.200;2022-10-30T03:46:17;5.77;;;5.17;;
1775;SDS011;885;42.626;23.200;2022-10-30T03:48:47;6.97;;;5.30;;
1775;SDS011;885;42.626;23.200;2022-10-30T03:51:14;7.20;;;3.70;;
1775;SDS011;885;42.626;23.200;2022-10-30T03:53:41;2.93;;;2.50;;
1775;SDS011;885;42.626;23.200;2022-10-30T03:56:08;3.60;;;2.20;;
1775;SDS011;885;42.626;23.200;2022-10-30T03:58:35;5.23;;;4.73;;
1775;SDS011;885;42.626;23.200;2022-10-30T04:01:02;4.07;;;3.57;;
1775;SDS011;885;42.626;23.200;2022-10-30T04:03:31;9.30;;;7.43;;
1775;SDS011;885;42.626;23.200;2022-10-30T04:05:58;8.07;;;6.47;;
1775;SDS011;885;42.626;23.200;2022-10-30T04:08:25;8.17;;;6.07;;
1775;SDS011;885;42.626;23.200;2022-10-30T04:10:52;4.63;;;3.93;;
1775;SDS011;885;42.626;23.200;2022-10-30T04:13:19;6.53;;;4.40;;
1775;SDS011;885;42.626;23.200;2022-10-30T04:15:46;4.73;;;3.73;;
1775;SDS011;885;42.626;23.200;2022-10-30T04:18:14;5.23;;;4.43;;
1775;SDS011;885;42.626;23.200;2022-10-30T04:20:43;8.00;;;4.87;;
1775;SDS011;885;42.626;23.200;2022-10-30T04:23:11;4.47;;;3.93;;
1775;SDS011;885;42.626;23.200;2022-10-30T04:25:40;5.33;;;4.60;;
1775;SDS011;885;42.626;23.200;2022-10-30T04:28:07;3.80;;;3.50;;
1775;SDS011;885;42.626;23.200;2022-10-30T04:30:34;5.00;;;4.60;;
1775;SDS011;885;42.626;23.200;2022-10-30T04:33:01;4.73;;;3.83;;
1775;SDS011;885;42.626;23.200;2022-10-30T04:35:30;4.03;;;3.67;;
1775;SDS011;885;42.626;23.200;2022-10-30T04:37:59;7.17;;;3.77;;
1775;SDS011;885;42.626;23.200;2022-10-30T04:40:28;4.80;;;3.47;;
1775;SDS011;885;42.626;23.200;2022-10-30T04:42:57;7.80;;;4.20;;
1775;SDS011;885;42.626;23.200;2022-10-30T04:45:24;4.90;;;4.50;;
1775;SDS011;885;42.626;23.200;2022-10-30T04:47:51;11.70;;;8.10;;
1775;SDS011;885;42.626;23.200;2022-10-30T04:50:18;5.40;;;4.43;;
1775;SDS011;885;42.626;23.200;2022-10-30T04:52:45;6.10;;;5.50;;
1775;SDS011;885;42.626;23.200;2022-10-30T04:55:13;6.00;;;2.97;;
1775;SDS011;885;42.626;23.200;2022-10-30T04:57:40;5.33;;;3.13;;
1775;SDS011;885;42.626;23.200;2022-10-30T05:00:07;4.57;;;3.07;;
1775;SDS011;885;42.626;23.200;2022-10-30T05:02:36;3.47;;;2.47;;
1775;SDS011;885;42.626;23.200;2022-10-30T05:05:03;3.80;;;2.00;;
1775;SDS011;885;42.626;23.200;2022-10-30T05:07:30;5.23;;;2.10;;
1775;SDS011;885;42.626;23.200;2022-10-30T05:09:57;2.83;;;2.50;;
1775;SDS011;885;42.626;23.200;2022-10-30T05:12:25;6.43;;;3.93;;
1775;SDS011;885;42.626;23.200;2022-10-30T05:14:52;5.40;;;3.30;;
1775;SDS011;885;42.626;23.200;2022-10-30T05:17:19;3.23;;;2.57;;
1775;SDS011;885;42.626;23.200;2022-10-30T05:19:46;1.97;;;1.87;;
1775;SDS011;885;42.626;23.200;2022-10-30T05:22:13;2.67;;;2.47;;
1775;SDS011;885;42.626;23.200;2022-10-30T05:24:40;15.87;;;14.03;;
1775;SDS011;885;42.626;23.200;2022-10-30T05:27:06;8.70;;;2.90;;
1775;SDS011;885;42.626;23.200;2022-10-30T05:29:35;9.90;;;8.87;;
1775;SDS011;885;42.626;23.200;2022-10-30T05:32:01;8.90;;;8.00;;
1775;SDS011;885;42.626;23.200;2022-10-30T05:34:28;9.50;;;7.53;;
1775;SDS011;885;42.626;23.200;2022-10-30T05:36:55;8.53;;;7.43;;
1775;SDS011;885;42.626;23.200;2022-10-30T05:39:22;7.83;;;7.13;;
1775;SDS011;885;42.626;23.200;2022-10-30T05:41:49;3.80;;;3.40;;
1775;SDS011;885;42.626;23.200;2022-10-30T05:44:15;11.47;;;7.43;;
1775;SDS011;885;42.626;23.200;2022-10-30T05:46:43;10.17;;;5.90;;
1775;SDS011;885;42.626;23.200;2022-10-30T05:49:10;7.00;;;6.30;;
1775;SDS011;885;42.626;23.200;2022-10-30T06:09:41;11.40;;;10.20;;
1775;SDS011;885;42.626;23.200;2022-10-30T06:12:08;13.67;;;10.80;;
1775;SDS011;885;42.626;23.200;2022-10-30T06:14:35;12.27;;;9.90;;
1775;SDS011;885;42.626;23.200;2022-10-30T06:17:02;8.90;;;8.00;;
1775;SDS011;885;42.626;23.200;2022-10-30T06:19:28;9.17;;;7.20;;
1775;SDS011;885;42.626;23.200;2022-10-30T06:21:55;9.40;;;7.30;;
1775;SDS011;885;42.626;23.200;2022-10-30T06:24:22;9.43;;;8.20;;
1775;SDS011;885;42.626;23.200;2022-10-30T06:26:50;11.70;;;9.23;;
1775;SDS011;885;42.626;23.200;2022-10-30T06:29:17;12.03;;;10.20;;
1775;SDS011;885;42.626;23.200;2022-10-30T06:31:44;11.50;;;7.50;;
1775;SDS011;885;42.626;23.200;2022-10-30T06:34:10;10.07;;;6.77;;
1775;SDS011;885;42.626;23.200;2022-10-30T06:36:37;15.10;;;8.30;;
1775;SDS011;885;42.626;23.200;2022-10-30T06:39:04;4.73;;;4.33;;
1775;SDS011;885;42.626;23.200;2022-10-30T06:41:31;10.23;;;7.20;;
1775;SDS011;885;42.626;23.200;2022-10-30T06:44:00;7.10;;;6.47;;
1775;SDS011;885;42.626;23.200;2022-10-30T06:46:29;8.30;;;7.50;;
1775;SDS011;885;42.626;23.200;2022-10-30T06:48:56;6.20;;;5.60;;
1775;SDS011;885;42.626;23.200;2022-10-30T06:51:23;9.97;;;8.97;;
1775;SDS011;885;42.626;23.200;2022-10-30T06:53:50;9.37;;;7.40;;
1775;SDS011;885;42.626;23.200;2022-10-30T06:56:17;9.20;;;6.40;;
1775;SDS011;885;42.626;23.200;2022-10-30T06:58:44;8.07;;;7.27;;
1775;SDS011;885;42.626;23.200;2022-10-30T07:01:12;9.13;;;8.23;;
1775;SDS011;885;42.626;23.200;2022-10-30T07:03:39;10.30;;;9.07;;
1775;SDS011;885;42.626;23.200;2022-10-30T07:06:05;10.00;;;8.17;;
1775;SDS011;885;42.626;23.200;2022-10-30T07:08:32;6.60;;;6.00;;
1775;SDS011;885;42.626;23.200;2022-10-30T07:10:59;9.60;;;8.17;;
1775;SDS011;885;42.626;23.200;2022-10-30T07:13:26;15.93;;;7.70;;
1775;SDS011;885;42.626;23.200;2022-10-30T07:15:53;9.43;;;8.37;;
1775;SDS011;885;42.626;23.200;2022-10-30T07:18:21;8.23;;;7.30;;
1775;SDS011;885;42.626;23.200;2022-10-30T07:20:52;6.00;;;5.50;;
1775;SDS011;885;42.626;23.200;2022-10-30T07:23:20;9.73;;;8.50;;
1775;SDS011;885;42.626;23.200;2022-10-30T07:25:46;10.83;;;9.73;;
1775;SDS011;885;42.626;23.200;2022-10-30T07:28:13;9.63;;;8.23;;
1775;SDS011;885;42.626;23.200;2022-10-30T07:30:40;12.43;;;9.50;;
1775;SDS011;885;42.626;23.200;2022-10-30T07:33:09;10.37;;;9.20;;
1775;SDS011;885;42.626;23.200;2022-10-30T07:35:38;8.50;;;7.00;;
1775;SDS011;885;42.626;23.200;2022-10-30T07:38:05;9.70;;;7.17;;
1775;SDS011;885;42.626;23.200;2022-10-30T07:40:33;14.60;;;9.37;;
1775;SDS011;885;42.626;23.200;2022-10-30T07:43:00;21.67;;;16.67;;
1775;SDS011;885;42.626;23.200;2022-10-30T07:45:28;17.10;;;12.57;;
1775;SDS011;885;42.626;23.200;2022-10-30T07:47:55;10.67;;;8.93;;
1775;SDS011;885;42.626;23.200;2022-10-30T07:50:22;6.83;;;6.13;;
1775;SDS011;885;42.626;23.200;2022-10-30T07:52:50;7.57;;;6.77;;
1775;SDS011;885;42.626;23.200;2022-10-30T07:55:17;7.40;;;6.70;;
1775;SDS011;885;42.626;23.200;2022-10-30T07:57:44;7.57;;;6.97;;
1775;SDS011;885;42.626;23.200;2022-10-30T08:00:11;7.03;;;6.40;;
1775;SDS011;885;42.626;23.200;2022-10-30T08:02:40;7.57;;;6.87;;
1775;SDS011;885;42.626;23.200;2022-10-30T08:05:07;7.10;;;4.83;;
1775;SDS011;885;42.626;23.200;2022-10-30T08:07:35;7.20;;;6.53;;
1775;SDS011;885;42.626;23.200;2022-10-30T08:10:05;5.20;;;4.70;;
1775;SDS011;885;42.626;23.200;2022-10-30T08:12:33;6.50;;;4.83;;
1775;SDS011;885;42.626;23.200;2022-10-30T08:15:00;7.20;;;4.47;;
1775;SDS011;885;42.626;23.200;2022-10-30T08:17:27;4.50;;;3.73;;
1775;SDS011;885;42.626;23.200;2022-10-30T08:19:53;3.80;;;3.50;;
1775;SDS011;885;42.626;23.200;2022-10-30T08:22:21;5.80;;;5.20;;
1775;SDS011;885;42.626;23.200;2022-10-30T08:24:48;6.00;;;5.43;;
1775;SDS011;885;42.626;23.200;2022-10-30T08:27:16;9.07;;;5.60;;
1775;SDS011;885;42.626;23.200;2022-10-30T08:29:45;6.57;;;5.43;;
1775;SDS011;885;42.626;23.200;2022-10-30T08:32:12;5.10;;;4.70;;
1775;SDS011;885;42.626;23.200;2022-10-30T08:34:38;5.77;;;5.27;;
1775;SDS011;885;42.626;23.200;2022-10-30T08:37:05;4.37;;;3.97;;
1775;SDS011;885;42.626;23.200;2022-10-30T08:39:32;8.70;;;7.80;;
1775;SDS011;885;42.626;23.200;2022-10-30T08:41:59;6.60;;;6.00;;
1775;SDS011;885;42.626;23.200;2022-10-30T08:44:29;12.87;;;8.07;;
1775;SDS011;885;42.626;23.200;2022-10-30T08:46:56;6.10;;;5.57;;
1775;SDS011;885;42.626;23.200;2022-10-30T08:49:23;6.50;;;4.60;;
1775;SDS011;885;42.626;23.200;2022-10-30T08:51:50;5.53;;;4.60;;
1775;SDS011;885;42.626;23.200;2022-10-30T08:54:16;6.40;;;5.37;;
1775;SDS011;885;42.626;23.200;2022-10-30T08:56:43;6.40;;;4.87;;
1775;SDS011;885;42.626;23.200;2022-10-30T08:59:10;5.93;;;4.87;;
1775;SDS011;885;42.626;23.200;2022-10-30T09:01:38;5.87;;;5.27;;
1775;SDS011;885;42.626;23.200;2022-10-30T09:04:05;6.10;;;5.50;;
1775;SDS011;885;42.626;23.200;2022-10-30T09:06:32;5.40;;;4.87;;
1775;SDS011;885;42.626;23.200;2022-10-30T09:08:59;6.07;;;4.47;;
1775;SDS011;885;42.626;23.200;2022-10-30T09:11:25;5.03;;;4.47;;
1775;SDS011;885;42.626;23.200;2022-10-30T09:13:52;7.13;;;6.43;;
1775;SDS011;885;42.626;23.200;2022-10-30T09:16:19;6.73;;;5.73;;
1775;SDS011;885;42.626;23.200;2022-10-30T09:18:47;7.13;;;6.20;;
1775;SDS011;885;42.626;23.200;2022-10-30T09:21:14;5.90;;;5.30;;
1775;SDS011;885;42.626;23.200;2022-10-30T09:23:41;7.40;;;6.60;;
1775;SDS011;885;42.626;23.200;2022-10-30T09:26:08;6.30;;;5.70;;
1775;SDS011;885;42.626;23.200;2022-10-30T09:28:35;6.80;;;6.10;;
1775;SDS011;885;42.626;23.200;2022-10-30T09:31:02;10.27;;;9.27;;
1775;SDS011;885;42.626;23.200;2022-10-30T09:33:29;7.27;;;6.00;;
1775;SDS011;885;42.626;23.200;2022-10-30T09:35:57;14.87;;;6.90;;
1775;SDS011;885;42.626;23.200;2022-10-30T09:38:23;10.10;;;7.60;;
1775;SDS011;885;42.626;23.200;2022-10-30T09:40:58;8.37;;;6.80;;
1775;SDS011;885;42.626;23.200;2022-10-30T09:43:40;6.40;;;5.73;;
1775;SDS011;885;42.626;23.200;2022-10-30T09:46:28;6.23;;;5.43;;
1775;SDS011;885;42.626;23.200;2022-10-30T09:49:19;8.80;;;5.20;;
1775;SDS011;885;42.626;23.200;2022-10-30T09:52:01;6.10;;;5.20;;
1775;SDS011;885;42.626;23.200;2022-10-30T09:54:35;7.10;;;4.60;;
1775;SDS011;885;42.626;23.200;2022-10-30T09:57:15;6.87;;;4.10;;
1775;SDS011;885;42.626;23.200;2022-10-30T09:59:53;5.07;;;4.20;;
1775;SDS011;885;42.626;23.200;2022-10-30T10:02:32;4.40;;;3.67;;
1775;SDS011;885;42.626;23.200;2022-10-30T10:05:03;6.00;;;5.20;;
1775;SDS011;885;42.626;23.200;2022-10-30T10:07:39;7.20;;;4.20;;
1775;SDS011;885;42.626;23.200;2022-10-30T10:10:10;12.93;;;4.50;;
1775;SDS011;885;42.626;23.200;2022-10-30T10:12:43;4.80;;;3.50;;
1775;SDS011;885;42.626;23.200;2022-10-30T10:15:13;5.03;;;4.53;;
1775;SDS011;885;42.626;23.200;2022-10-30T10:17:46;5.30;;;4.80;;
1775;SDS011;885;42.626;23.200;2022-10-30T10:20:14;7.17;;;4.57;;
1775;SDS011;885;42.626;23.200;2022-10-30T10:22:51;5.20;;;3.80;;
1775;SDS011;885;42.626;23.200;2022-10-30T10:25:19;7.37;;;3.80;;
1775;SDS011;885;42.626;23.200;2022-10-30T10:27:56;5.87;;;3.40;;
1775;SDS011;885;42.626;23.200;2022-10-30T10:30:35;4.33;;;2.97;;
1775;SDS011;885;42.626;23.200;2022-10-30T10:33:15;5.07;;;3.60;;
1775;SDS011;885;42.626;23.200;2022-10-30T10:36:05;3.60;;;3.00;;
1775;SDS011;885;42.626;23.200;2022-10-30T10:38:48;3.80;;;2.50;;
1775;SDS011;885;42.626;23.200;2022-10-30T10:41:30;3.53;;;2.37;;
1775;SDS011;885;42.626;23.200;2022-10-30T10:44:13;4.10;;;2.67;;
1775;SDS011;885;42.626;23.200;2022-10-30T10:46:55;4.80;;;2.90;;
1775;SDS011;885;42.626;23.200;2022-10-30T10:49:35;4.30;;;2.77;;
1775;SDS011;885;42.626;23.200;2022-10-30T10:52:14;3.87;;;2.83;;
1775;SDS011;885;42.626;23.200;2022-10-30T10:54:48;3.40;;;3.10;;
1775;SDS011;885;42.626;23.200;2022-10-30T10:57:20;6.90;;;3.53;;
1775;SDS011;885;42.626;23.200;2022-10-30T10:59:51;5.73;;;3.13;;
1775;SDS011;885;42.626;23.200;2022-10-30T11:02:30;4.87;;;2.50;;
1775;SDS011;885;42.626;23.200;2022-10-30T11:05:05;6.30;;;3.80;;
1775;SDS011;885;42.626;23.200;2022-10-30T11:07:38;3.30;;;2.90;;
1775;SDS011;885;42.626;23.200;2022-10-30T11:10:13;4.03;;;2.97;;
1775;SDS011;885;42.626;23.200;2022-10-30T11:12:41;4.10;;;2.80;;
1775;SDS011;885;42.626;23.200;2022-10-30T11:15:15;4.97;;;3.03;;
1775;SDS011;885;42.626;23.200;2022-10-30T11:17:49;5.40;;;3.10;;
1775;SDS011;885;42.626;23.200;2022-10-30T11:20:21;4.53;;;3.03;;
1775;SDS011;885;42.626;23.200;2022-10-30T11:22:53;5.23;;;3.20;;
1775;SDS011;885;42.626;23.200;2022-10-30T11:25:22;3.00;;;2.40;;
1775;SDS011;885;42.626;23.200;2022-10-30T11:27:52;5.03;;;2.60;;
1775;SDS011;885;42.626;23.200;2022-10-30T11:30:22;2.77;;;2.20;;
1775;SDS011;885;42.626;23.200;2022-10-30T11:32:52;2.67;;;2.47;;
1775;SDS011;885;42.626;23.200;2022-10-30T11:35:20;5.00;;;2.70;;
1775;SDS011;885;42.626;23.200;2022-10-30T11:37:48;2.23;;;1.70;;
1775;SDS011;885;42.626;23.200;2022-10-30T11:40:18;3.73;;;2.37;;
1775;SDS011;885;42.626;23.200;2022-10-30T11:42:48;9.40;;;2.90;;
1775;SDS011;885;42.626;23.200;2022-10-30T11:45:26;3.63;;;2.37;;
1775;SDS011;885;42.626;23.200;2022-10-30T11:47:56;3.93;;;2.33;;
1775;SDS011;885;42.626;23.200;2022-10-30T11:50:25;4.00;;;2.17;;
1775;SDS011;885;42.626;23.200;2022-10-30T11:52:54;2.90;;;1.83;;
1775;SDS011;885;42.626;23.200;2022-10-30T11:55:25;6.67;;;1.83;;
1775;SDS011;885;42.626;23.200;2022-10-30T11:57:56;3.30;;;1.70;;
1775;SDS011;885;42.626;23.200;2022-10-30T12:00:25;3.13;;;1.57;;
1775;SDS011;885;42.626;23.200;2022-10-30T12:02:55;2.80;;;1.80;;
1775;SDS011;885;42.626;23.200;2022-10-30T12:08:16;2.67;;;2.20;;
1775;SDS011;885;42.626;23.200;2022-10-30T12:10:45;5.33;;;2.37;;
1775;SDS011;885;42.626;23.200;2022-10-30T12:13:22;3.60;;;2.60;;
1775;SDS011;885;42.626;23.200;2022-10-30T12:16:02;3.40;;;2.37;;
1775;SDS011;885;42.626;23.200;2022-10-30T12:18:31;3.40;;;1.90;;
1775;SDS011;885;42.626;23.200;2022-10-30T12:20:59;3.77;;;2.00;;
1775;SDS011;885;42.626;23.200;2022-10-30T12:23:27;3.10;;;1.60;;
1775;SDS011;885;42.626;23.200;2022-10-30T12:25:55;3.20;;;1.80;;
1775;SDS011;885;42.626;23.200;2022-10-30T12:28:26;2.30;;;1.53;;
1775;SDS011;885;42.626;23.200;2022-10-30T12:30:56;2.20;;;1.80;;
1775;SDS011;885;42.626;23.200;2022-10-30T12:33:31;3.20;;;2.13;;
1775;SDS011;885;42.626;23.200;2022-10-30T12:36:03;5.53;;;2.57;;
1775;SDS011;885;42.626;23.200;2022-10-30T12:38:35;4.73;;;2.10;;
1775;SDS011;885;42.626;23.200;2022-10-30T12:41:09;3.77;;;2.03;;
1775;SDS011;885;42.626;23.200;2022-10-30T12:43:42;2.93;;;2.00;;
1775;SDS011;885;42.626;23.200;2022-10-30T12:46:16;2.90;;;2.30;;
1775;SDS011;885;42.626;23.200;2022-10-30T12:48:55;3.50;;;2.40;;
1775;SDS011;885;42.626;23.200;2022-10-30T12:51:29;3.23;;;1.70;;
1775;SDS011;885;42.626;23.200;2022-10-30T12:54:06;4.37;;;2.10;;
1775;SDS011;885;42.626;23.200;2022-10-30T12:56:43;6.77;;;1.70;;
1775;SDS011;885;42.626;23.200;2022-10-30T12:59:23;3.40;;;2.03;;
1775;SDS011;885;42.626;23.200;2022-10-30T13:01:56;2.17;;;1.80;;
1775;SDS011;885;42.626;23.200;2022-10-30T13:04:28;3.37;;;2.10;;
1775;SDS011;885;42.626;23.200;2022-10-30T13:07:01;3.47;;;1.88;;
1775;SDS011;885;42.626;23.200;2022-10-30T13:09:35;2.55;;;1.83;;
1775;SDS011;885;42.626;23.200;2022-10-30T13:12:07;2.70;;;2.15;;
1775;SDS011;885;42.626;23.200;2022-10-30T13:14:40;2.40;;;2.20;;
1775;SDS011;885;42.626;23.200;2022-10-30T13:17:12;2.58;;;2.08;;
1775;SDS011;885;42.626;23.200;2022-10-30T13:19:40;2.88;;;2.08;;
1775;SDS011;885;42.626;23.200;2022-10-30T13:22:11;3.70;;;2.00;;
1775;SDS011;885;42.626;23.200;2022-10-30T13:24:46;4.38;;;1.80;;
1775;SDS011;885;42.626;23.200;2022-10-30T13:27:22;2.88;;;2.58;;
1775;SDS011;885;42.626;23.200;2022-10-30T13:29:59;4.63;;;2.10;;
1775;SDS011;885;42.626;23.200;2022-10-30T13:32:32;4.10;;;1.85;;
1775;SDS011;885;42.626;23.200;2022-10-30T13:35:13;3.60;;;2.00;;
1775;SDS011;885;42.626;23.200;2022-10-30T13:37:50;4.10;;;2.33;;
1775;SDS011;885;42.626;23.200;2022-10-30T13:40:27;4.15;;;2.08;;
1775;SDS011;885;42.626;23.200;2022-10-30T13:43:01;2.57;;;1.63;;
1775;SDS011;885;42.626;23.200;2022-10-30T13:45:49;3.73;;;1.67;;
1775;SDS011;885;42.626;23.200;2022-10-30T13:48:29;3.80;;;1.90;;
1775;SDS011;885;42.626;23.200;2022-10-30T13:51:10;2.20;;;1.50;;
1775;SDS011;885;42.626;23.200;2022-10-30T13:54:07;2.87;;;1.90;;
1775;SDS011;885;42.626;23.200;2022-10-30T13:56:44;2.50;;;1.80;;
1775;SDS011;885;42.626;23.200;2022-10-30T13:59:16;3.00;;;1.70;;
1775;SDS011;885;42.626;23.200;2022-10-30T14:01:55;3.23;;;1.57;;
1775;SDS011;885;42.626;23.200;2022-10-30T14:04:28;5.07;;;1.70;;
1775;SDS011;885;42.626;23.200;2022-10-30T14:07:06;6.83;;;2.10;;
1775;SDS011;885;42.626;23.200;2022-10-30T14:09:44;6.00;;;2.57;;
1775;SDS011;885;42.626;23.200;2022-10-30T14:15:14;7.90;;;6.60;;
1775;SDS011;885;42.626;23.200;2022-10-30T14:20:55;7.00;;;3.07;;
1775;SDS011;885;42.626;23.200;2022-10-30T14:23:24;6.83;;;2.60;;
1775;SDS011;885;42.626;23.200;2022-10-30T14:28:47;7.43;;;2.80;;
1775;SDS011;885;42.626;23.200;2022-10-30T14:31:16;5.73;;;3.90;;
1775;SDS011;885;42.626;23.200;2022-10-30T14:33:46;4.30;;;2.50;;
1775;SDS011;885;42.626;23.200;2022-10-30T14:36:21;3.47;;;2.40;;
1775;SDS011;885;42.626;23.200;2022-10-30T14:38:52;8.30;;;3.30;;
1775;SDS011;885;42.626;23.200;2022-10-30T14:41:25;8.33;;;5.37;;
1775;SDS011;885;42.626;23.200;2022-10-30T14:44:05;4.97;;;2.73;;
1775;SDS011;885;42.626;23.200;2022-10-30T14:46:43;4.90;;;2.77;;
1775;SDS011;885;42.626;23.200;2022-10-30T14:52:18;5.33;;;2.47;;
1775;SDS011;885;42.626;23.200;2022-10-30T14:54:57;8.10;;;3.00;;
1775;SDS011;885;42.626;23.200;2022-10-30T14:57:44;3.37;;;2.43;;
1775;SDS011;885;42.626;23.200;2022-10-30T15:03:04;5.37;;;3.20;;
1775;SDS011;885;42.626;23.200;2022-10-30T15:05:42;5.20;;;3.97;;
1775;SDS011;885;42.626;23.200;2022-10-30T15:08:20;4.47;;;3.60;;
1775;SDS011;885;42.626;23.200;2022-10-30T15:11:07;9.30;;;6.50;;
1775;SDS011;885;42.626;23.200;2022-10-30T15:13:45;4.70;;;3.23;;
1775;SDS011;885;42.626;23.200;2022-10-30T15:16:14;3.70;;;2.80;;
1775;SDS011;885;42.626;23.200;2022-10-30T15:18:43;4.47;;;3.27;;
1775;SDS011;885;42.626;23.200;2022-10-30T15:21:13;3.70;;;2.60;;
1775;SDS011;885;42.626;23.200;2022-10-30T15:23:48;4.27;;;3.13;;
1775;SDS011;885;42.626;23.200;2022-10-30T15:26:17;4.53;;;3.57;;
1775;SDS011;885;42.626;23.200;2022-10-30T15:28:46;4.03;;;2.83;;
1775;SDS011;885;42.626;23.200;2022-10-30T15:31:22;8.70;;;3.00;;
1775;SDS011;885;42.626;23.200;2022-10-30T15:33:50;3.60;;;3.20;;
1775;SDS011;885;42.626;23.200;2022-10-30T15:36:18;6.77;;;2.90;;
1775;SDS011;885;42.626;23.200;2022-10-30T15:41:42;4.10;;;3.60;;
1775;SDS011;885;42.626;23.200;2022-10-30T15:44:12;4.67;;;3.40;;
1775;SDS011;885;42.626;23.200;2022-10-30T15:46:42;5.33;;;3.67;;
1775;SDS011;885;42.626;23.200;2022-10-30T15:49:10;4.23;;;3.23;;
1775;SDS011;885;42.626;23.200;2022-10-30T15:51:42;3.87;;;3.00;;
1775;SDS011;885;42.626;23.200;2022-10-30T15:54:11;4.67;;;3.17;;
1775;SDS011;885;42.626;23.200;2022-10-30T15:56:42;6.77;;;3.30;;
1775;SDS011;885;42.626;23.200;2022-10-30T15:59:14;4.90;;;3.10;;
1775;SDS011;885;42.626;23.200;2022-10-30T16:01:46;5.10;;;3.03;;
1775;SDS011;885;42.626;23.200;2022-10-30T16:04:13;5.07;;;3.40;;
1775;SDS011;885;42.626;23.200;2022-10-30T16:06:46;5.57;;;3.47;;
1775;SDS011;885;42.626;23.200;2022-10-30T16:09:14;3.27;;;2.97;;
1775;SDS011;885;42.626;23.200;2022-10-30T16:11:42;5.43;;;3.00;;
1775;SDS011;885;42.626;23.200;2022-10-30T16:14:11;3.20;;;2.90;;